createdAt,value
2022-10-05T00:01:01.290Z,5.88
2022-10-05T00:03:39.113Z,5.30
2022-10-05T00:06:09.442Z,5.13
2022-10-05T00:08:37.243Z,6.32
2022-10-05T00:11:09.512Z,6.40
2022-10-05T00:13:37.272Z,5.05
2022-10-05T00:16:08.479Z,6.18
2022-10-05T00:18:36.643Z,6.40
2022-10-05T00:21:24.880Z,5.65
2022-10-05T00:23:56.910Z,5.28
2022-10-05T00:26:27.724Z,5.97
2022-10-05T00:28:55.682Z,4.75
2022-10-05T00:31:32.877Z,4.63
2022-10-05T00:34:00.878Z,4.85
2022-10-05T00:36:28.629Z,5.22
2022-10-05T00:38:56.478Z,5.45
2022-10-05T00:41:38.968Z,4.47
2022-10-05T00:44:50.756Z,5.00
2022-10-05T00:47:41.827Z,4.35
2022-10-05T00:50:56.779Z,4.60
2022-10-05T00:57:04.012Z,4.78
2022-10-05T00:59:49.475Z,5.05
2022-10-05T01:02:40.061Z,4.38
2022-10-05T01:05:35.607Z,4.57
2022-10-05T01:08:37.393Z,6.05
2022-10-05T01:11:20.476Z,4.63
2022-10-05T01:14:11.867Z,4.32
2022-10-05T01:16:49.078Z,4.07
2022-10-05T01:19:54.772Z,4.75
2022-10-05T01:22:34.654Z,4.10
2022-10-05T01:25:13.103Z,4.40
2022-10-05T01:28:04.015Z,3.97
2022-10-05T01:30:42.866Z,5.05
2022-10-05T01:33:46.357Z,5.00
2022-10-05T01:36:40.645Z,4.13
2022-10-05T01:39:43.996Z,4.38
2022-10-05T01:42:28.170Z,3.97
2022-10-05T01:45:10.842Z,4.03
2022-10-05T01:47:49.920Z,4.38
2022-10-05T01:50:23.138Z,4.15
2022-10-05T01:53:26.503Z,4.43
2022-10-05T01:56:38.836Z,4.78
2022-10-05T01:59:19.984Z,4.00
2022-10-05T02:02:14.163Z,4.00
2022-10-05T02:05:08.392Z,4.47
2022-10-05T02:07:49.588Z,4.53
2022-10-05T02:10:28.941Z,4.30
2022-10-05T02:13:17.552Z,4.43
2022-10-05T02:16:00.484Z,4.50
2022-10-05T02:18:41.952Z,3.95
2022-10-05T02:21:10.791Z,4.28
2022-10-05T02:23:41.272Z,3.65
2022-10-05T02:26:12.004Z,4.07
2022-10-05T02:28:53.820Z,4.30
2022-10-05T02:31:55.838Z,3.72
2022-10-05T02:34:34.096Z,3.90
2022-10-05T02:37:37.735Z,3.90
2022-10-05T02:40:19.596Z,3.83
2022-10-05T02:43:12.274Z,3.65
2022-10-05T02:45:54.372Z,4.30
2022-10-05T02:48:48.260Z,4.25
2022-10-05T02:51:46.772Z,4.45
2022-10-05T02:54:40.139Z,5.90
2022-10-05T02:57:28.910Z,4.95
2022-10-05T03:00:15.829Z,5.25
2022-10-05T03:03:06.354Z,4.87
2022-10-05T03:06:02.501Z,4.95
2022-10-05T03:09:02.622Z,5.10
2022-10-05T03:11:43.859Z,4.45
2022-10-05T03:14:46.660Z,4.85
2022-10-05T03:17:24.925Z,4.78
2022-10-05T03:20:18.446Z,4.93
2022-10-05T03:22:58.807Z,4.78
2022-10-05T03:25:51.347Z,4.65
2022-10-05T03:28:31.076Z,5.20
2022-10-05T03:31:14.876Z,5.40
2022-10-05T03:33:48.497Z,5.25
2022-10-05T03:36:50.684Z,4.88
2022-10-05T03:39:28.189Z,5.00
2022-10-05T03:42:33.197Z,4.73
2022-10-05T03:45:33.297Z,4.93
2022-10-05T03:48:14.320Z,5.03
2022-10-05T03:51:06.566Z,4.93
2022-10-05T03:54:07.674Z,5.22
2022-10-05T03:56:46.652Z,4.85
2022-10-05T03:59:32.593Z,6.17
2022-10-05T04:02:26.220Z,4.50
2022-10-05T04:05:17.619Z,4.47
2022-10-05T04:08:09.188Z,3.88
2022-10-05T04:10:54.233Z,4.30
2022-10-05T04:14:02.277Z,4.97
2022-10-05T04:16:48.046Z,5.15
2022-10-05T04:19:27.184Z,4.87
2022-10-05T04:22:15.911Z,5.22
2022-10-05T04:24:56.183Z,5.20
2022-10-05T04:27:48.533Z,4.10
2022-10-05T04:30:19.719Z,4.90
2022-10-05T04:32:59.299Z,4.70
2022-10-05T04:36:04.418Z,5.43
2022-10-05T04:39:01.944Z,4.75
2022-10-05T04:41:48.217Z,4.93
2022-10-05T04:47:16.673Z,4.85
2022-10-05T04:50:01.808Z,5.23
2022-10-05T04:53:10.289Z,5.28
2022-10-05T04:56:12.860Z,5.57
2022-10-05T04:59:17.654Z,5.83
2022-10-05T05:02:03.526Z,5.43
2022-10-05T05:05:06.006Z,6.30
2022-10-05T05:07:53.591Z,6.47
2022-10-05T05:10:51.949Z,11.77
2022-10-05T05:14:04.250Z,11.93
2022-10-05T05:16:52.646Z,15.33
2022-10-05T05:19:35.164Z,8.97
2022-10-05T05:22:33.838Z,6.33
2022-10-05T05:25:38.384Z,7.17
2022-10-05T05:28:51.774Z,6.40
2022-10-05T05:32:07.085Z,6.30
2022-10-05T05:35:07.345Z,5.50
2022-10-05T05:38:20.600Z,5.53
2022-10-05T05:41:16.664Z,7.07
2022-10-05T05:44:19.409Z,5.97
2022-10-05T05:47:18.606Z,6.10
2022-10-05T05:50:07.891Z,5.13
2022-10-05T05:52:51.687Z,5.67
2022-10-05T05:55:36.093Z,6.30
2022-10-05T05:58:19.545Z,11.07
2022-10-05T06:01:25.041Z,5.82
2022-10-05T06:04:25.808Z,8.33
2022-10-05T06:06:57.777Z,10.87
2022-10-05T06:09:46.107Z,8.73
2022-10-05T06:12:41.644Z,8.50
2022-10-05T06:15:34.748Z,7.23
2022-10-05T06:18:14.590Z,7.15
2022-10-05T06:21:11.560Z,7.37
2022-10-05T06:23:50.754Z,5.73
2022-10-05T06:26:24.858Z,6.47
2022-10-05T06:29:04.004Z,6.10
2022-10-05T06:31:57.921Z,6.40
2022-10-05T06:34:48.722Z,5.77
2022-10-05T06:37:56.866Z,6.13
2022-10-05T06:40:56.084Z,4.17
2022-10-05T06:43:42.131Z,4.80
2022-10-05T06:46:55.914Z,4.50
2022-10-05T06:53:18.599Z,4.20
2022-10-05T06:56:54.981Z,4.47
2022-10-05T07:00:01.634Z,3.92
2022-10-05T07:02:52.664Z,5.07
2022-10-05T07:06:00.216Z,5.20
2022-10-05T07:08:47.182Z,5.10
2022-10-05T07:11:55.785Z,4.00
2022-10-05T07:15:22.439Z,4.47
2022-10-05T07:18:22.236Z,4.72
2022-10-05T07:21:15.989Z,4.00
2022-10-05T07:24:33.052Z,3.70
2022-10-05T07:27:22.787Z,4.00
2022-10-05T07:30:12.719Z,4.68
2022-10-05T07:33:13.017Z,4.00
2022-10-05T07:36:22.871Z,3.55
2022-10-05T07:39:03.206Z,3.80
2022-10-05T07:41:47.742Z,3.83
2022-10-05T07:44:45.755Z,4.45
2022-10-05T07:47:38.032Z,3.83
2022-10-05T07:50:44.195Z,4.82
2022-10-05T07:53:25.542Z,5.68
2022-10-05T07:56:05.174Z,10.10
2022-10-05T07:58:43.539Z,9.45
2022-10-05T08:01:29.653Z,8.98
2022-10-05T08:04:27.108Z,9.05
2022-10-05T08:09:56.387Z,6.30
2022-10-05T08:12:30.864Z,6.70
2022-10-05T08:15:17.758Z,6.00
2022-10-05T08:17:54.632Z,8.10
2022-10-05T08:20:48.215Z,6.40
2022-10-05T08:23:22.525Z,5.75
2022-10-05T08:26:06.506Z,5.43
2022-10-05T08:28:53.431Z,5.63
2022-10-05T08:31:29.831Z,6.65
2022-10-05T08:34:23.303Z,5.80
2022-10-05T08:37:07.055Z,6.43
2022-10-05T08:39:53.996Z,6.03
2022-10-05T08:43:04.727Z,6.07
2022-10-05T08:45:44.019Z,6.47
2022-10-05T08:48:42.465Z,5.93
2022-10-05T08:51:29.628Z,5.75
2022-10-05T08:54:27.683Z,5.57
2022-10-05T08:57:22.228Z,5.70
2022-10-05T09:00:24.035Z,6.30
2022-10-05T09:03:15.963Z,5.45
2022-10-05T09:06:11.873Z,6.00
2022-10-05T09:09:15.238Z,5.95
2022-10-05T09:12:06.322Z,6.60
2022-10-05T09:15:25.010Z,6.30
2022-10-05T09:18:21.645Z,6.15
2022-10-05T09:21:06.481Z,6.93
2022-10-05T09:23:43.607Z,6.07
2022-10-05T09:26:45.686Z,6.00
2022-10-05T09:30:03.373Z,6.32
2022-10-05T09:32:39.969Z,5.32
2022-10-05T09:35:37.911Z,6.40
2022-10-05T09:38:21.064Z,5.78
2022-10-05T09:41:30.449Z,6.10
2022-10-05T09:44:12.923Z,5.07
2022-10-05T09:47:02.567Z,5.35
2022-10-05T09:50:04.593Z,6.00
2022-10-05T09:53:06.026Z,6.28
2022-10-05T09:56:13.575Z,5.85
2022-10-05T09:59:18.112Z,5.38
2022-10-05T10:05:09.113Z,4.72
2022-10-05T10:08:04.790Z,5.03
2022-10-05T10:11:11.462Z,5.35
2022-10-05T10:14:14.458Z,4.97
2022-10-05T10:17:01.195Z,5.55
2022-10-05T10:19:57.039Z,5.95
2022-10-05T10:22:30.803Z,5.32
2022-10-05T10:25:42.244Z,5.13
2022-10-05T10:29:01.159Z,4.88
2022-10-05T10:32:15.870Z,4.53
2022-10-05T10:35:26.507Z,4.90
2022-10-05T10:38:33.870Z,4.95
2022-10-05T10:41:42.134Z,4.25
2022-10-05T10:44:40.046Z,4.43
2022-10-05T10:47:28.513Z,4.78
2022-10-05T10:50:40.931Z,4.95
2022-10-05T10:53:56.157Z,4.20
2022-10-05T10:57:01.159Z,5.28
2022-10-05T10:59:31.856Z,4.75
2022-10-05T11:02:29.553Z,4.20
2022-10-05T11:05:51.341Z,4.50
2022-10-05T11:08:51.106Z,3.63
2022-10-05T11:11:37.124Z,3.70
2022-10-05T11:14:13.751Z,3.78
2022-10-05T11:17:29.422Z,3.40
2022-10-05T11:20:25.057Z,3.28
2022-10-05T11:23:11.551Z,5.60
2022-10-05T11:25:47.406Z,4.53
2022-10-05T11:28:52.951Z,4.50
2022-10-05T11:31:48.066Z,4.10
2022-10-05T11:34:59.043Z,2.92
2022-10-05T11:37:49.207Z,3.67
2022-10-05T11:40:52.676Z,3.90
2022-10-05T11:44:24.694Z,4.17
2022-10-05T11:47:24.628Z,3.20
2022-10-05T11:50:26.831Z,3.28
2022-10-05T11:53:29.559Z,3.65
2022-10-05T11:56:18.276Z,3.58
2022-10-05T11:59:26.685Z,3.00
2022-10-05T12:02:47.403Z,3.28
2022-10-05T12:05:36.150Z,3.25
2022-10-05T12:08:33.827Z,3.78
2022-10-05T12:11:48.032Z,3.30
2022-10-05T12:14:41.217Z,3.10
2022-10-05T12:17:20.888Z,3.42
2022-10-05T12:20:23.802Z,3.17
2022-10-05T12:23:38.630Z,3.03
2022-10-05T12:26:29.095Z,3.47
2022-10-05T12:29:22.460Z,3.42
2022-10-05T12:32:07.411Z,3.10
2022-10-05T12:35:03.285Z,3.47
2022-10-05T12:37:37.044Z,3.00
2022-10-05T12:40:34.799Z,3.65
2022-10-05T12:43:20.781Z,4.45
2022-10-05T12:46:09.212Z,3.65
2022-10-05T12:49:17.757Z,3.30
2022-10-05T12:51:49.499Z,3.50
2022-10-05T12:54:36.345Z,3.05
2022-10-05T12:57:15.439Z,3.08
2022-10-05T12:59:49.287Z,3.55
2022-10-05T13:02:33.028Z,3.50
2022-10-05T13:05:10.356Z,2.90
2022-10-05T13:08:03.728Z,3.03
2022-10-05T13:10:52.736Z,3.05
2022-10-05T13:13:50.754Z,3.13
2022-10-05T13:16:37.641Z,3.30
2022-10-05T13:19:44.551Z,2.80
2022-10-05T13:22:34.930Z,2.78
2022-10-05T13:25:31.261Z,3.47
2022-10-05T13:28:26.079Z,3.42
2022-10-05T13:31:13.408Z,3.92
2022-10-05T13:33:54.361Z,3.20
2022-10-05T13:36:51.852Z,3.22
2022-10-05T13:39:37.476Z,3.25
2022-10-05T13:42:30.510Z,2.97
2022-10-05T13:45:17.918Z,3.10
2022-10-05T13:47:48.686Z,3.03
2022-10-05T13:50:33.608Z,3.15
2022-10-05T13:53:48.283Z,3.70
2022-10-05T13:56:51.848Z,2.90
2022-10-05T13:59:41.810Z,3.03
2022-10-05T14:02:38.400Z,3.72
2022-10-05T14:05:23.304Z,3.63
2022-10-05T14:08:15.792Z,3.15
2022-10-05T14:10:47.298Z,3.30
2022-10-05T14:13:26.865Z,3.15
2022-10-05T14:19:51.178Z,2.97
2022-10-05T14:22:25.053Z,2.90
2022-10-05T14:25:07.639Z,2.60
2022-10-05T14:27:56.105Z,3.00
2022-10-05T14:30:27.344Z,2.25
2022-10-05T14:33:06.029Z,3.10
2022-10-05T14:35:52.685Z,2.63
2022-10-05T14:38:56.941Z,3.85
2022-10-05T14:41:28.439Z,3.15
2022-10-05T14:44:13.675Z,2.40
2022-10-05T14:46:56.502Z,2.30
2022-10-05T14:49:38.292Z,2.55
2022-10-05T14:52:51.696Z,2.30
2022-10-05T14:55:38.225Z,2.50
2022-10-05T14:58:31.753Z,3.20
2022-10-05T15:01:14.806Z,2.60
2022-10-05T15:03:55.698Z,2.42
2022-10-05T15:06:42.399Z,2.78
2022-10-05T15:09:45.611Z,2.65
2022-10-05T15:12:24.913Z,3.22
2022-10-05T15:15:25.497Z,2.20
2022-10-05T15:18:28.392Z,2.40
2022-10-05T15:21:42.431Z,2.45
2022-10-05T15:24:50.686Z,2.53
2022-10-05T15:27:42.153Z,2.30
2022-10-05T15:30:18.258Z,2.80
2022-10-05T15:33:10.671Z,2.97
2022-10-05T15:36:04.353Z,3.03
2022-10-05T15:39:04.094Z,2.97
2022-10-05T15:41:40.731Z,3.35
2022-10-05T15:44:42.235Z,2.78
2022-10-05T15:47:21.026Z,3.20
2022-10-05T15:50:16.910Z,2.75
2022-10-05T15:52:56.201Z,3.15
2022-10-05T15:55:43.506Z,3.42
2022-10-05T15:58:35.896Z,2.95
2022-10-05T16:01:40.284Z,2.90
2022-10-05T16:04:38.721Z,3.10
2022-10-05T16:07:37.659Z,3.30
2022-10-05T16:10:21.604Z,3.88
2022-10-05T16:13:23.195Z,3.03
2022-10-05T16:16:24.956Z,3.20
2022-10-05T16:19:39.491Z,3.17
2022-10-05T16:22:18.464Z,3.13
2022-10-05T16:25:12.568Z,3.50
2022-10-05T16:28:11.835Z,2.50
2022-10-05T16:31:18.172Z,2.10
2022-10-05T16:34:23.535Z,2.08
2022-10-05T16:37:35.702Z,1.85
2022-10-05T16:40:19.611Z,2.45
2022-10-05T16:42:57.853Z,2.70
2022-10-05T16:45:51.751Z,7.05
2022-10-05T16:51:16.039Z,5.97
2022-10-05T16:54:00.446Z,4.78
2022-10-05T16:57:03.620Z,2.90
2022-10-05T17:00:04.690Z,1.60
2022-10-05T17:02:41.642Z,1.70
2022-10-05T17:05:25.992Z,1.20
2022-10-05T17:08:38.390Z,1.30
2022-10-05T17:11:28.263Z,1.27
2022-10-05T17:14:45.731Z,1.30
2022-10-05T17:17:52.794Z,1.50
2022-10-05T17:21:02.859Z,1.50
2022-10-05T17:24:20.811Z,1.40
2022-10-05T17:27:02.950Z,1.50
2022-10-05T17:29:52.323Z,1.38
2022-10-05T17:32:20.119Z,1.73
2022-10-05T17:35:02.454Z,3.20
2022-10-05T17:37:41.636Z,4.45
2022-10-05T17:40:31.113Z,3.13
2022-10-05T17:43:25.008Z,2.60
2022-10-05T17:45:57.205Z,3.30
2022-10-05T17:49:03.327Z,2.10
2022-10-05T17:51:49.467Z,1.55
2022-10-05T17:55:05.388Z,2.25
2022-10-05T17:57:34.173Z,2.45
2022-10-05T18:00:05.995Z,4.20
2022-10-05T18:02:38.512Z,3.90
2022-10-05T18:05:12.538Z,5.20
2022-10-05T18:07:42.535Z,3.20
2022-10-05T18:10:11.611Z,2.03
2022-10-05T18:12:41.837Z,2.25
2022-10-05T18:15:09.474Z,1.70
2022-10-05T18:18:00.937Z,1.58
2022-10-05T18:20:32.666Z,1.60
2022-10-05T18:23:03.542Z,1.73
2022-10-05T18:25:56.086Z,1.52
2022-10-05T18:28:32.305Z,1.67
2022-10-05T18:31:30.520Z,1.30
2022-10-05T18:34:39.579Z,1.50
2022-10-05T18:37:39.175Z,1.70
2022-10-05T18:40:24.914Z,1.88
2022-10-05T18:43:24.763Z,1.83
2022-10-05T18:46:30.641Z,1.70
2022-10-05T18:49:29.118Z,1.30
2022-10-05T18:52:45.026Z,1.35
2022-10-05T18:55:44.532Z,1.50
2022-10-05T18:58:55.936Z,1.40
2022-10-05T19:02:07.283Z,1.35
2022-10-05T19:04:50.506Z,1.52
2022-10-05T19:07:18.155Z,1.60
2022-10-05T19:10:00.372Z,1.85
2022-10-05T19:12:56.118Z,1.88
2022-10-05T19:15:42.331Z,1.80
2022-10-05T19:18:16.193Z,1.92
2022-10-05T19:20:58.614Z,1.65
2022-10-05T19:23:55.522Z,1.60
2022-10-05T19:27:06.799Z,3.50
2022-10-05T19:30:15.497Z,1.58
2022-10-05T19:33:05.079Z,1.90
2022-10-05T19:36:10.794Z,2.00
2022-10-05T19:39:03.540Z,2.17
2022-10-05T19:41:54.390Z,2.78
2022-10-05T19:45:08.915Z,1.98
2022-10-05T19:48:36.340Z,1.60
2022-10-05T19:51:35.590Z,2.00
2022-10-05T19:54:32.412Z,1.90
2022-10-05T19:57:02.607Z,2.10
2022-10-05T19:59:34.674Z,1.80
2022-10-05T20:02:04.164Z,2.05
2022-10-05T20:04:41.959Z,2.63
2022-10-05T20:07:21.575Z,2.78
2022-10-05T20:09:58.759Z,4.15
2022-10-05T20:12:53.839Z,3.95
2022-10-05T20:15:46.806Z,3.22
2022-10-05T20:18:57.863Z,2.13
2022-10-05T20:21:49.491Z,1.60
2022-10-05T20:24:25.501Z,1.77
2022-10-05T20:27:02.411Z,2.10
2022-10-05T20:29:35.575Z,2.53
2022-10-05T20:32:08.964Z,2.22
2022-10-05T20:34:41.356Z,2.45
2022-10-05T20:37:15.306Z,2.13
2022-10-05T20:39:43.736Z,1.75
2022-10-05T20:42:11.960Z,1.83
2022-10-05T20:44:40.191Z,2.00
2022-10-05T20:47:10.926Z,1.70
2022-10-05T20:49:41.279Z,1.80
2022-10-05T20:52:11.362Z,1.88
2022-10-05T20:54:39.780Z,2.50
2022-10-05T20:57:09.415Z,3.05
2022-10-05T20:59:37.609Z,2.78
2022-10-05T21:02:06.204Z,3.67
2022-10-05T21:04:41.716Z,3.35
2022-10-05T21:07:10.172Z,3.38
2022-10-05T21:09:39.382Z,2.65
2022-10-05T21:12:07.356Z,2.25
2022-10-05T21:14:36.345Z,2.05
2022-10-05T21:17:06.351Z,2.28
2022-10-05T21:19:39.414Z,1.95
2022-10-05T21:22:09.665Z,1.55
2022-10-05T21:24:39.640Z,1.63
2022-10-05T21:27:08.328Z,2.03
2022-10-05T21:29:37.080Z,1.92
2022-10-05T21:32:08.666Z,2.17
2022-10-05T21:34:36.896Z,2.72
2022-10-05T21:37:05.164Z,2.00
2022-10-05T21:39:33.790Z,1.90
2022-10-05T21:42:01.782Z,2.05
2022-10-05T21:44:29.521Z,2.05
2022-10-05T21:46:57.370Z,1.50
2022-10-05T21:49:26.345Z,1.77
2022-10-05T21:51:54.655Z,1.38
2022-10-05T21:54:23.777Z,1.85
2022-10-05T21:56:55.550Z,2.20
2022-10-05T21:59:29.724Z,1.80
2022-10-05T22:01:57.783Z,1.75
2022-10-05T22:04:25.565Z,2.40
2022-10-05T22:06:55.454Z,2.40
2022-10-05T22:09:23.549Z,2.80
2022-10-05T22:11:51.516Z,2.17
2022-10-05T22:14:19.291Z,2.50
2022-10-05T22:16:47.369Z,1.75
2022-10-05T22:19:20.023Z,2.90
2022-10-05T22:21:47.918Z,2.30
2022-10-05T22:24:15.683Z,2.83
2022-10-05T22:26:46.728Z,3.10
2022-10-05T22:29:17.332Z,3.25
2022-10-05T22:31:48.886Z,2.45
2022-10-05T22:34:18.291Z,2.10
2022-10-05T22:36:47.543Z,1.42
2022-10-05T22:39:16.545Z,2.08
2022-10-05T22:41:44.592Z,1.73
2022-10-05T22:44:12.373Z,1.40
2022-10-05T22:46:40.449Z,1.98
2022-10-05T22:49:08.232Z,1.88
2022-10-05T22:51:36.010Z,1.90
2022-10-05T22:54:03.949Z,1.90
2022-10-05T22:56:31.937Z,1.88
2022-10-05T22:58:59.664Z,1.67
2022-10-05T23:01:27.554Z,2.35
2022-10-05T23:03:57.215Z,1.80
2022-10-05T23:06:28.048Z,2.05
2022-10-05T23:08:55.979Z,2.08
2022-10-05T23:11:27.870Z,1.50
2022-10-05T23:13:57.120Z,1.92
2022-10-05T23:16:28.002Z,1.48
2022-10-05T23:18:56.687Z,1.50
2022-10-05T23:21:27.840Z,1.80
2022-10-05T23:23:55.686Z,1.80
2022-10-05T23:26:24.956Z,2.50
2022-10-05T23:28:53.389Z,1.95
2022-10-05T23:31:25.617Z,2.55
2022-10-05T23:33:54.098Z,2.28
2022-10-05T23:36:28.438Z,3.85
2022-10-05T23:38:56.155Z,2.33
2022-10-05T23:41:25.008Z,2.40
2022-10-05T23:43:55.207Z,2.22
2022-10-05T23:46:23.290Z,2.78
2022-10-05T23:48:51.270Z,2.28
2022-10-05T23:51:19.147Z,2.70
2022-10-05T23:53:46.938Z,2.67
2022-10-05T23:56:14.684Z,2.38
2022-10-05T23:58:42.578Z,1.75
